Time;durP1;ratioP1;P1;durP2;ratioP2;P2;SDS_P1;SDS_P2;PMS_P1;PMS_P2;Temp;Humidity;BMP_temperature;BMP_pressure;BME280_temperature;BME280_humidity;BME280_pressure;Samples;Min_cycle;Max_cycle;Signal;HPM_P1;HPM_P2
2023/11/23 00:00:08;;;;;;;39.63;21.47;;;;;;;1.64;nan;100940.66;5037991;27;96768;-77
2023/11/23 00:02:34;;;;;;;36.50;21.95;;;;;;;1.63;nan;100916.50;5021470;27;100756;-74
2023/11/23 00:05:00;;;;;;;34.67;21.07;;;;;;;1.69;nan;100937.28;5020544;27;100580;-74
2023/11/23 00:07:26;;;;;;;35.93;21.27;;;;;;;1.72;nan;100923.50;5020395;27;96954;-74
2023/11/23 00:09:51;;;;;;;33.07;21.30;;;;;;;1.74;nan;100927.81;5037164;27;96992;-74
2023/11/23 00:12:18;;;;;;;41.10;22.87;;;;;;;1.77;nan;100912.31;5037552;27;101086;-73
2023/11/23 00:14:44;;;;;;;41.13;22.63;;;;;;;1.86;nan;100923.66;5037429;27;100941;-74
2023/11/23 00:17:09;;;;;;;37.37;23.17;;;;;;;1.94;nan;100929.78;5037547;27;96548;-74
2023/11/23 00:19:35;;;;;;;38.33;21.50;;;;;;;1.90;nan;100928.88;5054595;27;96877;-73
2023/11/23 00:22:01;;;;;;;38.17;23.07;;;;;;;1.98;nan;100918.63;5020384;27;101701;-74
2023/11/23 00:24:26;;;;;;;36.27;21.67;;;;;;;1.98;nan;100911.72;5037802;27;97606;-74
2023/11/23 00:26:53;;;;;;;36.83;21.83;;;;;;;1.89;nan;100893.50;5054685;27;96567;-75
2023/11/23 00:29:22;;;;;;;37.30;22.07;;;;;;;1.91;nan;100891.78;5038052;27;96788;-73
2023/11/23 00:31:48;;;;;;;40.00;22.53;;;;;;;1.83;nan;100867.53;5036775;27;100084;-75
2023/11/23 00:34:14;;;;;;;41.47;22.80;;;;;;;1.71;nan;100872.56;5020161;27;101399;-74
2023/11/23 00:36:40;;;;;;;41.70;22.70;;;;;;;1.67;nan;100873.41;5020764;27;96534;-74
2023/11/23 00:39:09;;;;;;;36.93;22.03;;;;;;;1.58;nan;100861.22;5020502;27;96791;-73
2023/11/23 00:41:36;;;;;;;37.03;23.10;;;;;;;1.62;nan;100862.13;5036918;27;101458;-74
2023/11/23 00:44:05;;;;;;;40.80;22.27;;;;;;;1.58;nan;100862.09;5054206;27;97827;-73
2023/11/23 00:46:31;;;;;;;48.43;26.50;;;;;;;1.60;nan;100864.72;5055878;27;96730;-73
2023/11/23 00:48:59;;;;;;;40.40;23.13;;;;;;;1.70;nan;100863.94;5024145;27;96607;-73
2023/11/23 00:51:26;;;;;;;42.83;26.10;;;;;;;1.67;nan;100855.28;5040859;27;101276;-74
2023/11/23 00:53:51;;;;;;;44.83;24.37;;;;;;;1.73;nan;100860.53;5040801;27;97408;-73
2023/11/23 00:56:17;;;;;;;36.87;22.27;;;;;;;1.73;nan;100855.34;5057745;27;96676;-73
2023/11/23 00:58:44;;;;;;;37.53;22.33;;;;;;;1.77;nan;100854.50;5040510;27;97456;-75
2023/11/23 01:01:17;;;;;;;38.00;23.17;;;;;;;1.56;nan;100835.31;5023897;27;100613;-74
2023/11/23 01:03:43;;;;;;;;;;;;;;;1.48;nan;100847.28;5057982;27;98017;-74
2023/11/23 01:06:08;;;;;;;40.90;23.07;;;;;;;1.52;nan;100846.50;5040460;27;96642;-75
2023/11/23 01:08:34;;;;;;;39.60;23.53;;;;;;;1.61;nan;100837.09;5039827;27;96877;-74
2023/11/23 01:11:01;;;;;;;41.70;22.93;;;;;;;1.62;nan;100831.94;5040306;27;100810;-73
2023/11/23 01:13:27;;;;;;;37.40;22.10;;;;;;;1.52;nan;100819.75;5040791;27;101095;-74
2023/11/23 01:15:52;;;;;;;37.77;22.60;;;;;;;1.55;nan;100817.19;5057489;27;96648;-76
2023/11/23 01:18:18;;;;;;;37.13;22.97;;;;;;;1.67;nan;100811.28;5040715;27;96625;-73
2023/11/23 01:20:44;;;;;;;42.73;24.57;;;;;;;1.67;nan;100806.97;5039886;27;98055;-74
2023/11/23 01:23:11;;;;;;;44.17;22.40;;;;;;;1.57;nan;100798.25;5075498;27;97602;-74
2023/11/23 01:25:36;;;;;;;32.87;21.10;;;;;;;1.65;nan;100805.22;5040559;27;96532;-73
2023/11/23 01:28:02;;;;;;;39.30;22.80;;;;;;;1.58;nan;100796.53;5023356;27;96830;-73
2023/11/23 01:30:28;;;;;;;40.60;23.50;;;;;;;1.62;nan;100811.22;5057217;27;97535;-73
2023/11/23 01:32:53;;;;;;;43.07;23.37;;;;;;;1.58;nan;100801.72;5056795;27;101348;-74
2023/11/23 01:35:21;;;;;;;36.40;21.40;;;;;;;1.56;nan;100793.06;5039949;27;96766;-73
2023/11/23 01:37:47;;;;;;;37.83;21.57;;;;;;;1.58;nan;100787.03;5041172;27;96814;-73
2023/11/23 01:40:13;;;;;;;40.80;21.93;;;;;;;1.61;nan;100780.16;5039742;27;101874;-74
2023/11/23 01:42:38;;;;;;;37.67;22.07;;;;;;;1.63;nan;100776.75;5057031;27;98380;-74
2023/11/23 01:45:04;;;;;;;39.20;22.73;;;;;;;1.63;nan;100763.81;5039292;27;96619;-74
2023/11/23 01:47:31;;;;;;;39.93;22.97;;;;;;;1.70;nan;100768.19;5057005;27;96777;-74
2023/11/23 01:50:02;;;;;;;39.17;22.80;;;;;;;1.76;nan;100763.06;5039793;27;97835;-74
2023/11/23 01:52:28;;;;;;;35.97;21.93;;;;;;;1.77;nan;100761.31;5023038;27;101119;-74
2023/11/23 01:54:53;;;;;;;36.83;22.10;;;;;;;1.71;nan;100756.97;5056694;27;96638;-74
2023/11/23 01:57:19;;;;;;;38.40;22.03;;;;;;;1.77;nan;100754.41;5038768;27;97039;-76
2023/11/23 01:59:45;;;;;;;38.07;22.77;;;;;;;1.77;nan;100738.88;5038951;27;101717;-74
2023/11/23 02:02:10;;;;;;;39.33;21.50;;;;;;;1.83;nan;100748.44;5022879;27;101159;-74
2023/11/23 02:04:36;;;;;;;36.83;21.80;;;;;;;1.84;nan;100741.56;5056764;27;96554;-73
2023/11/23 02:07:02;;;;;;;39.87;22.60;;;;;;;1.78;nan;100727.69;5075092;27;96734;-73
2023/11/23 02:09:28;;;;;;;40.17;23.03;;;;;;;1.83;nan;100714.78;5038263;27;100904;-74
2023/11/23 02:11:55;;;;;;;37.97;22.97;;;;;;;1.78;nan;100713.91;5039168;27;101375;-76
2023/11/23 02:14:21;;;;;;;40.17;22.20;;;;;;;1.90;nan;100719.16;5056366;27;96692;-74
2023/11/23 02:16:46;;;;;;;39.63;23.13;;;;;;;1.90;nan;100726.06;5054029;27;96723;-74
2023/11/23 02:19:12;;;;;;;35.27;21.80;;;;;;;1.83;nan;100713.91;5056087;27;101283;-74
2023/11/23 02:21:37;;;;;;;36.67;22.50;;;;;;;1.98;nan;100730.44;5022142;27;100311;-73
2023/11/23 02:24:07;;;;;;;41.93;24.03;;;;;;;1.95;nan;100724.34;5056327;27;96624;-74
2023/11/23 02:26:33;;;;;;;38.57;23.60;;;;;;;1.91;nan;100720.88;5039984;27;96530;-73
2023/11/23 02:28:59;;;;;;;40.60;23.90;;;;;;;1.92;nan;100716.56;5038556;27;101591;-73
2023/11/23 02:31:24;;;;;;;35.43;22.40;;;;;;;1.98;nan;100712.31;5056123;27;97910;-76
2023/11/23 02:33:51;;;;;;;40.63;23.00;;;;;;;1.95;nan;100706.22;5039043;27;96651;-75
2023/11/23 02:36:17;;;;;;;42.67;24.73;;;;;;;1.90;nan;100702.75;5056762;27;96715;-77
2023/11/23 02:38:42;;;;;;;37.97;23.10;;;;;;;1.91;nan;100701.91;5038765;27;101269;-74
2023/11/23 02:41:08;;;;;;;43.77;24.70;;;;;;;1.95;nan;100677.75;5055982;27;98125;-74
2023/11/23 02:43:33;;;;;;;43.43;24.30;;;;;;;1.94;nan;100676.88;5055776;27;96620;-74
2023/11/23 02:45:59;;;;;;;36.70;22.07;;;;;;;1.96;nan;100663.97;5056105;27;96707;-74
2023/11/23 02:48:25;;;;;;;37.73;22.73;;;;;;;1.91;nan;100650.97;5038699;27;101355;-75
2023/11/23 02:50:51;;;;;;;42.77;23.87;;;;;;;1.79;nan;100646.59;5039188;27;98087;-74
2023/11/23 02:53:31;;;;;;;38.97;23.67;;;;;;;1.67;nan;100663.75;5038663;27;96637;-73
2023/11/23 02:55:57;;;;;;;37.63;22.13;;;;;;;1.77;nan;100655.19;5040303;27;96880;-74
2023/11/23 02:58:22;;;;;;;41.03;24.30;;;;;;;1.72;nan;100650.00;5037965;27;100932;-73
2023/11/23 03:00:51;;;;;;;39.93;23.27;;;;;;;1.84;nan;100645.78;5038292;27;101017;-73
2023/11/23 03:03:17;;;;;;;46.90;24.47;;;;;;;1.86;nan;100644.03;5055762;27;96713;-73
2023/11/23 03:05:42;;;;;;;40.30;23.30;;;;;;;1.77;nan;100627.56;5038536;27;96795;-73
2023/11/23 03:08:08;;;;;;;36.97;21.30;;;;;;;1.91;nan;100632.00;5055718;27;98075;-73
2023/11/23 03:10:34;;;;;;;39.10;22.77;;;;;;;1.94;nan;100621.66;5054116;27;101645;-73
2023/11/23 03:13:00;;;;;;;36.13;22.70;;;;;;;2.00;nan;100606.16;5055409;27;96530;-75
2023/11/23 03:15:26;;;;;;;39.87;22.67;;;;;;;1.97;nan;100604.41;5056050;27;96754;-73
2023/11/23 03:17:52;;;;;;;36.43;21.37;;;;;;;1.97;nan;100601.81;5038309;27;100913;-77
2023/11/23 03:20:17;;;;;;;37.67;22.60;;;;;;;2.00;nan;100598.38;5038526;27;97781;-73
2023/11/23 03:22:43;;;;;;;38.07;22.40;;;;;;;2.02;nan;100594.94;5020884;27;96596;-73
2023/11/23 03:25:10;;;;;;;39.47;24.30;;;;;;;2.01;nan;100585.47;5055557;27;96756;-73
2023/11/23 03:27:37;;;;;;;40.93;23.40;;;;;;;2.07;nan;100582.03;5038451;27;97452;-74
2023/11/23 03:30:05;;;;;;;40.57;23.23;;;;;;;2.00;nan;100572.50;5055141;27;97469;-73
2023/11/23 03:32:32;;;;;;;38.93;23.30;;;;;;;1.95;nan;100581.94;5038478;27;96575;-73
2023/11/23 03:34:58;;;;;;;40.10;22.50;;;;;;;1.87;nan;100578.47;5038014;27;96902;-73
2023/11/23 03:37:24;;;;;;;36.60;20.83;;;;;;;1.89;nan;100576.75;5037936;27;101351;-73
2023/11/23 03:39:49;;;;;;;40.57;22.17;;;;;;;1.93;nan;100575.91;5038146;27;101497;-74
2023/11/23 03:42:15;;;;;;;39.77;21.60;;;;;;;1.90;nan;100574.16;5021313;27;96584;-74
2023/11/23 03:44:40;;;;;;;39.63;23.07;;;;;;;1.98;nan;100569.91;5038564;27;96884;-73
2023/11/23 03:47:06;;;;;;;37.67;21.27;;;;;;;2.07;nan;100578.59;5020493;27;100978;-73
2023/11/23 03:49:31;;;;;;;37.63;21.33;;;;;;;2.11;nan;100552.69;5020957;27;101299;-74
2023/11/23 03:51:57;;;;;;;39.00;21.13;;;;;;;2.06;nan;100533.66;5054859;27;96666;-74
2023/11/23 03:54:23;;;;;;;37.03;21.03;;;;;;;2.01;nan;100531.06;5055297;27;96834;-74
2023/11/23 03:56:49;;;;;;;33.77;19.63;;;;;;;1.92;nan;100520.69;5037647;27;101122;-73
2023/11/23 03:59:14;;;;;;;35.43;21.20;;;;;;;2.08;nan;100533.69;5020880;27;100818;-73
2023/11/23 04:01:45;;;;;;;31.53;19.13;;;;;;;2.09;nan;100540.59;5054940;27;96651;-73
2023/11/23 04:04:11;;;;;;;32.37;19.13;;;;;;;2.09;nan;100531.09;5038344;27;96708;-75
2023/11/23 04:06:36;;;;;;;33.03;19.60;;;;;;;2.08;nan;100524.19;5020719;27;101364;-73
2023/11/23 04:09:03;;;;;;;30.67;19.17;;;;;;;1.97;nan;100505.16;5036993;27;101214;-73
2023/11/23 04:11:28;;;;;;;28.50;17.60;;;;;;;2.18;nan;100514.72;5054474;27;96527;-73
2023/11/23 04:13:54;;;;;;;30.23;19.17;;;;;;;2.19;nan;100496.59;5037475;27;96813;-74
2023/11/23 04:16:20;;;;;;;28.10;16.77;;;;;;;2.32;nan;100494.91;5037365;27;101421;-74
2023/11/23 04:18:46;;;;;;;28.80;17.57;;;;;;;2.30;nan;100486.28;5037346;27;101635;-77
2023/11/23 04:21:12;;;;;;;26.03;16.10;;;;;;;2.28;nan;100484.53;5036380;27;96552;-74
2023/11/23 04:23:37;;;;;;;26.07;16.57;;;;;;;2.34;nan;100474.19;5054615;27;96763;-74
2023/11/23 04:26:03;;;;;;;28.43;17.43;;;;;;;2.39;nan;100473.34;5020565;27;99759;-73
2023/11/23 04:28:28;;;;;;;30.20;17.20;;;;;;;2.47;nan;100468.16;5038228;27;97702;-73
2023/11/23 04:30:54;;;;;;;28.60;17.27;;;;;;;2.45;nan;100465.56;5037149;27;96533;-73
2023/11/23 04:33:22;;;;;;;27.83;17.13;;;;;;;2.52;nan;100461.25;5054390;27;96833;-73
2023/11/23 04:35:48;;;;;;;28.03;16.70;;;;;;;2.46;nan;100431.00;5071838;27;98043;-73
2023/11/23 04:38:14;;;;;;;23.90;15.33;;;;;;;2.40;nan;100417.19;5020243;27;101095;-73
2023/11/23 04:40:39;;;;;;;28.40;16.00;;;;;;;2.45;nan;100423.25;5054180;27;96567;-73
2023/11/23 04:43:05;;;;;;;23.73;15.70;;;;;;;2.46;nan;100420.66;5020300;27;96933;-73
2023/11/23 04:45:31;;;;;;;24.87;16.00;;;;;;;2.50;nan;100405.97;5054314;27;97404;-75
2023/11/23 04:47:56;;;;;;;28.90;17.03;;;;;;;2.62;nan;100407.72;5036965;27;101380;-74
2023/11/23 04:50:22;;;;;;;23.97;15.17;;;;;;;2.66;nan;100401.66;5020333;27;96980;-79
2023/11/23 04:52:47;;;;;;;27.17;15.57;;;;;;;2.70;nan;100387.81;5037269;27;96757;-74
2023/11/23 04:55:13;;;;;;;24.90;16.07;;;;;;;2.64;nan;100374.84;5036877;27;101161;-74
2023/11/23 04:57:38;;;;;;;27.60;15.83;;;;;;;2.58;nan;100386.09;5053974;27;97703;-74
2023/11/23 05:00:06;;;;;;;25.90;16.33;;;;;;;2.67;nan;100373.13;5053674;27;96557;-74
2023/11/23 05:02:31;;;;;;;25.67;15.50;;;;;;;2.67;nan;100357.56;5020207;27;97520;-74
2023/11/23 05:04:57;;;;;;;27.07;15.77;;;;;;;2.71;nan;100361.91;5019949;27;101435;-74
2023/11/23 05:07:25;;;;;;;25.13;15.87;;;;;;;2.69;nan;100357.59;5053967;27;97873;-74
2023/11/23 05:09:51;;;;;;;22.97;14.77;;;;;;;2.67;nan;100354.13;5053908;27;96827;-77
2023/11/23 05:12:17;;;;;;;30.03;17.23;;;;;;;2.69;nan;100348.06;5019897;27;96879;-73
2023/11/23 05:14:43;;;;;;;25.50;15.23;;;;;;;2.77;nan;100355.00;5036648;27;101503;-74
2023/11/23 05:17:08;;;;;;;26.80;16.63;;;;;;;2.76;nan;100348.91;5037277;27;97442;-76
2023/11/23 05:19:35;;;;;;;28.77;16.73;;;;;;;2.76;nan;100345.47;5036997;27;96662;-73
2023/11/23 05:22:02;;;;;;;25.20;15.93;;;;;;;2.81;nan;100347.19;5037484;27;96858;-74
2023/11/23 05:24:27;;;;;;;23.87;14.70;;;;;;;2.92;nan;100349.75;5053275;27;97369;-74
2023/11/23 05:26:54;;;;;;;24.73;15.27;;;;;;;2.92;nan;100337.66;5019137;27;101135;-77
2023/11/23 05:29:21;;;;;;;24.33;15.10;;;;;;;3.01;nan;100338.50;5053947;27;96570;-74
2023/11/23 05:31:46;;;;;;;24.87;15.67;;;;;;;3.04;nan;100325.53;5019980;27;96867;-74
2023/11/23 05:34:12;;;;;;;27.97;15.73;;;;;;;3.10;nan;100323.75;5039437;27;100746;-74
2023/11/23 05:36:37;;;;;;;23.33;15.03;;;;;;;3.07;nan;100312.53;5022675;27;100532;-74
2023/11/23 05:39:03;;;;;;;23.27;14.90;;;;;;;3.11;nan;100316.84;5023098;27;96584;-74
2023/11/23 05:41:31;;;;;;;28.37;17.23;;;;;;;3.10;nan;100303.00;5039914;27;96818;-74
2023/11/23 05:43:58;;;;;;;28.27;16.33;;;;;;;3.22;nan;100311.63;5056539;27;97915;-76
2023/11/23 05:46:24;;;;;;;22.73;16.07;;;;;;;3.32;nan;100334.09;5022876;27;100411;-74
2023/11/23 05:48:49;;;;;;;25.43;15.47;;;;;;;3.36;nan;100315.03;5039687;27;96557;-74
2023/11/23 05:51:15;;;;;;;27.57;16.23;;;;;;;3.44;nan;100312.41;5056981;27;96797;-74
2023/11/23 05:53:41;;;;;;;23.60;15.77;;;;;;;3.47;nan;100318.44;5022676;27;101880;-74
2023/11/23 05:56:07;;;;;;;30.90;14.83;;;;;;;3.51;nan;100322.72;5039476;27;101292;-74
2023/11/23 05:58:33;;;;;;;26.30;15.17;;;;;;;3.54;nan;100309.72;5056896;27;96672;-74
2023/11/23 06:00:58;;;;;;;22.23;14.43;;;;;;;3.63;nan;100309.66;5039562;27;96908;-74
2023/11/23 06:03:24;;;;;;;25.00;14.87;;;;;;;3.71;nan;100312.22;5022243;27;101185;-70
2023/11/23 06:05:50;;;;;;;22.13;14.10;;;;;;;3.72;nan;100307.91;5040082;27;97355;-71
2023/11/23 06:08:15;;;;;;;26.77;14.80;;;;;;;3.71;nan;100307.03;5039396;27;96706;-71
2023/11/23 06:10:42;;;;;;;22.93;13.97;;;;;;;3.72;nan;100287.13;5074684;27;96826;-82
2023/11/23 06:13:08;;;;;;;20.17;13.53;;;;;;;3.73;nan;100307.91;5056044;27;98608;-75
2023/11/23 06:15:33;;;;;;;21.83;13.80;;;;;;;3.74;nan;100296.63;5039189;27;101813;-73
2023/11/23 06:17:59;;;;;;;25.37;14.93;;;;;;;3.70;nan;100289.75;5075080;27;96444;-72
2023/11/23 06:20:24;;;;;;;22.40;13.97;;;;;;;3.73;nan;100294.06;5055986;27;96899;-72
2023/11/23 06:22:50;;;;;;;24.43;14.63;;;;;;;3.78;nan;100294.88;5056252;27;97292;-72
2023/11/23 06:25:16;;;;;;;23.23;14.23;;;;;;;3.70;nan;100289.75;5039377;27;97553;-74
2023/11/23 06:27:41;;;;;;;25.33;15.10;;;;;;;3.67;nan;100281.13;5056683;27;96631;-77
2023/11/23 06:30:07;;;;;;;23.27;14.87;;;;;;;3.83;nan;100285.31;5039431;27;96863;-75
2023/11/23 06:32:33;;;;;;;24.53;14.73;;;;;;;3.83;nan;100287.91;5038586;27;101868;-74
2023/11/23 06:34:58;;;;;;;22.07;14.30;;;;;;;3.91;nan;100280.09;5056137;27;97819;-74
2023/11/23 06:37:24;;;;;;;20.67;13.30;;;;;;;4.03;nan;100283.44;5055177;27;97225;-75
2023/11/23 06:39:52;;;;;;;23.00;13.80;;;;;;;3.94;nan;100262.72;5074745;27;96771;-74
2023/11/23 06:42:17;;;;;;;20.77;12.87;;;;;;;4.01;nan;100267.00;5038498;27;101254;-76
2023/11/23 06:44:45;;;;;;;24.53;13.93;;;;;;;3.91;nan;100256.72;5037381;27;100893;-75
2023/11/23 06:47:10;;;;;;;22.43;13.67;;;;;;;3.93;nan;100262.75;5055756;27;96608;-74
2023/11/23 06:49:36;;;;;;;19.30;12.50;;;;;;;3.90;nan;100257.56;5038532;27;96816;-74
2023/11/23 06:52:01;;;;;;;21.57;13.57;;;;;;;3.94;nan;100251.50;5055335;27;101597;-76
2023/11/23 06:54:27;;;;;;;21.00;13.50;;;;;;;3.92;nan;100248.88;5055677;27;101045;-74
2023/11/23 06:56:53;;;;;;;19.07;12.50;;;;;;;3.90;nan;100242.88;5038172;27;96571;-74
2023/11/23 06:59:18;;;;;;;19.37;12.17;;;;;;;3.90;nan;100247.16;5056031;27;96872;-74
2023/11/23 07:01:44;;;;;;;19.93;11.97;;;;;;;3.90;nan;100242.88;5054793;27;97634;-75
2023/11/23 07:04:09;;;;;;;22.10;12.77;;;;;;;3.91;nan;100244.56;5038118;27;101992;-76
2023/11/23 07:06:35;;;;;;;19.33;11.37;;;;;;;3.92;nan;100245.44;5055193;27;96651;-74
2023/11/23 07:09:01;;;;;;;16.90;11.90;;;;;;;3.89;nan;100240.25;5021474;27;96895;-73
2023/11/23 07:11:26;;;;;;;18.07;11.67;;;;;;;3.97;nan;100236.72;5038264;27;101542;-73
2023/11/23 07:13:52;;;;;;;19.10;12.30;;;;;;;3.99;nan;100227.19;5073628;27;97963;-79
2023/11/23 07:16:18;;;;;;;19.43;11.47;;;;;;;3.99;nan;100229.78;5038384;27;96975;-76
2023/11/23 07:18:44;;;;;;;23.37;11.77;;;;;;;4.11;nan;100227.97;5038727;27;96812;-75
2023/11/23 07:21:09;;;;;;;17.90;11.77;;;;;;;4.15;nan;100224.47;5054961;27;97524;-74
2023/11/23 07:23:38;;;;;;;17.33;11.43;;;;;;;4.06;nan;100231.44;5055101;27;97340;-75
2023/11/23 07:26:03;;;;;;;19.70;12.83;;;;;;;4.13;nan;100229.69;5055035;27;96547;-75
2023/11/23 07:28:29;;;;;;;15.87;11.43;;;;;;;4.26;nan;100220.03;5021246;27;97311;-81
2023/11/23 07:30:58;;;;;;;18.80;11.33;;;;;;;4.33;nan;100224.25;5037928;27;97675;-75
2023/11/23 07:33:33;;;;;;;21.03;11.67;;;;;;;4.18;nan;100207.09;5054799;27;101226;-77
2023/11/23 07:36:03;;;;;;;20.23;11.43;;;;;;;4.26;nan;100212.22;5038907;27;96628;-75
2023/11/23 07:38:29;;;;;;;21.97;11.77;;;;;;;4.31;nan;100205.25;5037582;27;96740;-74
2023/11/23 07:40:56;;;;;;;18.73;11.50;;;;;;;4.24;nan;100219.16;5037716;27;102598;-75
2023/11/23 07:43:23;;;;;;;16.97;10.53;;;;;;;4.28;nan;100207.88;5055480;27;97518;-81
2023/11/23 07:45:49;;;;;;;17.13;9.83;;;;;;;4.27;nan;100193.16;5037951;27;96634;-74
2023/11/23 07:48:14;;;;;;;15.50;9.97;;;;;;;4.35;nan;100208.66;5037954;27;96829;-74
2023/11/23 07:50:40;;;;;;;16.43;10.47;;;;;;;4.49;nan;100196.38;5054726;27;97842;-74
2023/11/23 07:53:07;;;;;;;15.73;9.67;;;;;;;4.51;nan;100194.66;5054750;27;97496;-72
2023/11/23 07:55:32;;;;;;;14.47;9.60;;;;;;;4.52;nan;100194.59;5054989;27;96583;-76
2023/11/23 07:57:58;;;;;;;14.03;9.47;;;;;;;4.43;nan;100194.72;5054786;27;96832;-74
2023/11/23 08:00:25;;;;;;;17.63;10.73;;;;;;;4.48;nan;100185.13;5037893;27;97784;-74
2023/11/23 08:02:51;;;;;;;15.97;9.00;;;;;;;4.51;nan;100179.91;5054499;27;97902;-75
2023/11/23 08:05:16;;;;;;;14.60;9.40;;;;;;;4.50;nan;100172.97;5037441;27;96632;-74
2023/11/23 08:07:42;;;;;;;13.40;9.10;;;;;;;4.42;nan;100176.53;5038209;27;96844;-74
2023/11/23 08:10:12;;;;;;;18.03;9.93;;;;;;;4.48;nan;100161.75;5054059;27;97360;-76
2023/11/23 08:12:39;;;;;;;17.40;9.73;;;;;;;4.50;nan;100161.72;5037850;27;101131;-76
2023/11/23 08:15:06;;;;;;;20.40;10.37;;;;;;;4.48;nan;100159.16;5053370;27;96620;-72
2023/11/23 08:17:32;;;;;;;14.33;9.87;;;;;;;4.52;nan;100154.75;5020497;27;97402;-75
2023/11/23 08:19:57;;;;;;;13.20;8.97;;;;;;;4.58;nan;100151.22;5054470;27;97641;-73
2023/11/23 08:22:23;;;;;;;17.13;8.83;;;;;;;4.67;nan;100154.56;5036658;27;101063;-74
2023/11/23 08:24:48;;;;;;;15.83;9.13;;;;;;;4.72;nan;100150.19;5072703;27;96543;-72
2023/11/23 08:27:14;;;;;;;14.53;8.83;;;;;;;4.63;nan;100145.09;5037439;27;96855;-73
2023/11/23 08:29:40;;;;;;;14.60;8.20;;;;;;;4.65;nan;100155.47;5053598;27;101494;-73
2023/11/23 08:32:08;;;;;;;12.93;8.63;;;;;;;4.69;nan;100146.75;5020485;27;100832;-73
2023/11/23 08:34:34;;;;;;;15.20;9.00;;;;;;;4.79;nan;100139.69;5036897;27;96623;-73
2023/11/23 08:36:59;;;;;;;14.67;9.40;;;;;;;4.88;nan;100135.22;5053759;27;96784;-81
2023/11/23 08:39:25;;;;;;;14.47;8.17;;;;;;;5.01;nan;100122.91;5053404;27;97675;-74
2023/11/23 08:41:51;;;;;;;15.80;8.37;;;;;;;5.05;nan;100134.13;5035178;27;97806;-75
2023/11/23 08:44:16;;;;;;;14.83;8.43;;;;;;;5.08;nan;100126.28;5036674;27;96621;-77
2023/11/23 08:46:43;;;;;;;12.70;7.93;;;;;;;5.18;nan;100126.13;5020040;27;96983;-69
2023/11/23 08:49:12;;;;;;;13.63;7.90;;;;;;;5.24;nan;100132.97;5053896;27;98068;-69
2023/11/23 08:51:38;;;;;;;11.80;7.73;;;;;;;5.25;nan;100139.91;5037100;27;101403;-69
2023/11/23 08:54:05;;;;;;;10.00;7.50;;;;;;;5.29;nan;100138.94;5036626;27;97023;-69
2023/11/23 08:56:31;;;;;;;13.23;8.67;;;;;;;5.34;nan;100138.91;5053968;27;96948;-69
2023/11/23 08:58:57;;;;;;;12.83;8.00;;;;;;;5.37;nan;100131.88;5053914;27;98400;-76
2023/11/23 09:01:26;;;;;;;16.27;8.63;;;;;;;5.45;nan;100142.19;5036954;27;97761;-76
2023/11/23 09:03:52;;;;;;;16.33;8.90;;;;;;;5.47;nan;100132.63;5037011;27;96717;-75
2023/11/23 09:06:18;;;;;;;14.93;9.03;;;;;;;5.44;nan;100122.25;5036591;27;96890;-77
2023/11/23 09:08:43;;;;;;;13.27;7.67;;;;;;;5.55;nan;100127.28;5039434;27;97507;-76
2023/11/23 09:11:10;;;;;;;10.80;7.07;;;;;;;5.58;nan;100129.81;5040124;27;101104;-75
2023/11/23 09:13:36;;;;;;;12.10;7.50;;;;;;;5.59;nan;100122.00;5057058;27;96676;-75
2023/11/23 09:16:01;;;;;;;13.33;8.40;;;;;;;5.68;nan;100126.19;5075688;27;96801;-75
2023/11/23 09:18:28;;;;;;;13.07;7.40;;;;;;;5.58;nan;100103.78;5023456;27;100883;-75
2023/11/23 09:20:54;;;;;;;12.50;7.57;;;;;;;5.59;nan;100113.34;5057495;27;97493;-76
2023/11/23 09:23:20;;;;;;;13.07;8.17;;;;;;;5.64;nan;100095.88;5040104;27;96588;-75
2023/11/23 09:25:46;;;;;;;12.47;7.73;;;;;;;5.70;nan;100092.28;5056864;27;96868;-76
2023/11/23 09:28:12;;;;;;;10.27;6.70;;;;;;;5.81;nan;100087.75;5039321;27;101946;-75
2023/11/23 09:30:38;;;;;;;9.47;6.80;;;;;;;5.96;nan;100071.88;5023133;27;101037;-77
2023/11/23 09:33:09;;;;;;;10.05;6.65;;;;;;;6.20;nan;100061.88;5023612;27;96717;-75
2023/11/23 09:35:39;;;;;;;11.23;7.25;;;;;;;6.29;nan;100065.16;5039804;27;96857;-76
2023/11/23 09:38:06;;;;;;;10.00;6.55;;;;;;;6.38;nan;100077.13;5056625;27;99723;-76
2023/11/23 09:40:32;;;;;;;9.53;6.50;;;;;;;6.58;nan;100061.91;5074837;27;97690;-75
2023/11/23 09:42:58;;;;;;;11.27;6.50;;;;;;;6.89;nan;100065.59;5022674;27;97416;-76
2023/11/23 09:45:24;;;;;;;9.15;6.05;;;;;;;7.11;nan;100058.97;5075467;27;96789;-78
2023/11/23 09:47:51;;;;;;;11.02;7.28;;;;;;;6.99;nan;100051.44;5057253;27;97981;-76
2023/11/23 09:50:18;;;;;;;13.15;6.15;;;;;;;6.92;nan;100044.63;5022769;27;101207;-77
2023/11/23 09:52:45;;;;;;;10.23;6.35;;;;;;;6.80;nan;100056.22;5039194;27;97297;-77
2023/11/23 09:55:10;;;;;;;9.88;6.25;;;;;;;6.78;nan;100042.38;5056705;27;96867;-76
2023/11/23 09:57:37;;;;;;;7.35;4.85;;;;;;;6.93;nan;100034.19;5019180;27;101243;-78
2023/11/23 10:00:09;;;;;;;7.95;4.63;;;;;;;7.20;nan;100022.19;5038903;27;101189;-78
2023/11/23 10:02:36;;;;;;;9.50;6.53;;;;;;;7.49;nan;100024.06;5040056;27;96613;-76
2023/11/23 10:05:03;;;;;;;10.48;7.05;;;;;;;7.65;nan;99992.31;5039614;27;96863;-77
2023/11/23 10:07:29;;;;;;;8.32;5.97;;;;;;;7.85;nan;99997.88;5039128;27;101508;-77
2023/11/23 10:09:55;;;;;;;8.68;5.75;;;;;;;7.62;nan;99988.03;5055892;27;101256;-76
2023/11/23 10:12:23;;;;;;;9.40;5.15;;;;;;;7.51;nan;99977.03;5039317;27;96655;-76
2023/11/23 10:14:52;;;;;;;7.38;5.18;;;;;;;7.43;nan;99966.78;5022804;27;96813;-75
2023/11/23 10:17:17;;;;;;;8.57;5.18;;;;;;;7.45;nan;99971.97;5021775;27;100718;-77
2023/11/23 10:19:44;;;;;;;9.63;5.60;;;;;;;7.48;nan;99951.00;5038219;27;97126;-76
2023/11/23 10:22:10;;;;;;;10.77;5.20;;;;;;;7.45;nan;99953.69;5056529;27;96651;-76
2023/11/23 10:24:48;;;;;;;10.25;6.25;;;;;;;7.54;nan;99937.75;5056369;27;96801;-76
2023/11/23 10:27:19;;;;;;;12.65;7.40;;;;;;;7.64;nan;99930.50;5038893;27;101236;-81
2023/11/23 10:29:46;;;;;;;12.88;7.03;;;;;;;7.74;nan;99929.38;5038657;27;101393;-71
2023/11/23 10:32:15;;;;;;;11.88;7.10;;;;;;;7.81;nan;99923.06;5039515;27;96615;-74
2023/11/23 10:34:41;;;;;;;13.98;7.05;;;;;;;8.06;nan;99920.59;5056300;27;96766;-73
2023/11/23 10:37:08;;;;;;;14.57;7.68;;;;;;;8.15;nan;99912.47;5056250;27;97385;-74
2023/11/23 10:39:34;;;;;;;15.25;6.28;;;;;;;8.17;nan;99901.94;5038810;27;100781;-74
2023/11/23 10:41:59;;;;;;;13.95;6.50;;;;;;;8.24;nan;99889.56;5038636;27;96588;-75
2023/11/23 10:44:28;;;;;;;15.23;6.80;;;;;;;8.21;nan;99893.09;5038763;27;98579;-74
2023/11/23 10:46:58;;;;;;;11.07;6.60;;;;;;;8.11;nan;99878.59;5022309;27;101220;-75
2023/11/23 10:49:25;;;;;;;10.00;6.22;;;;;;;8.21;nan;99869.56;5038567;27;99764;-76
2023/11/23 10:51:52;;;;;;;10.32;5.75;;;;;;;8.12;nan;99847.19;5021905;27;96635;-74
2023/11/23 10:54:17;;;;;;;16.35;6.60;;;;;;;8.27;nan;99850.22;5038620;27;96775;-74
2023/11/23 10:56:43;;;;;;;9.07;5.72;;;;;;;8.21;nan;99827.75;5021918;27;101613;-74
2023/11/23 10:59:13;;;;;;;10.55;6.25;;;;;;;8.16;nan;99827.88;5038970;27;98060;-75
2023/11/23 11:01:39;;;;;;;9.85;5.82;;;;;;;8.05;nan;99822.13;5039244;27;96758;-74
2023/11/23 11:04:05;;;;;;;8.60;4.50;;;;;;;8.11;nan;99808.84;5037993;27;96805;-74
2023/11/23 11:06:40;;;;;;;7.18;4.47;;;;;;;8.18;nan;99801.69;5037936;27;100876;-74
2023/11/23 11:09:15;;;;;;;9.27;4.90;;;;;;;8.39;nan;99810.63;5051719;27;98444;-74
2023/11/23 11:11:45;;;;;;;8.15;4.75;;;;;;;8.41;nan;99787.00;5070426;27;96605;-74
2023/11/23 11:14:13;;;;;;;9.65;4.40;;;;;;;8.50;nan;99799.81;5038277;27;96802;-74
2023/11/23 11:16:39;;;;;;;12.50;4.68;;;;;;;8.40;nan;99791.41;5073959;27;97842;-74
2023/11/23 11:19:13;;;;;;;6.45;4.32;;;;;;;8.40;nan;99796.63;5021350;27;100912;-74
2023/11/23 11:21:47;;;;;;;8.00;5.05;;;;;;;8.33;nan;99792.50;5055403;27;96687;-78
2023/11/23 11:24:17;;;;;;;8.73;4.47;;;;;;;8.22;nan;99789.38;5055945;27;96774;-74
2023/11/23 11:26:43;;;;;;;7.50;5.03;;;;;;;8.18;nan;99779.94;5055497;27;97865;-74
2023/11/23 11:29:11;;;;;;;6.10;4.20;;;;;;;8.30;nan;99785.59;5055259;27;98200;-74
2023/11/23 11:31:39;;;;;;;13.50;5.35;;;;;;;8.26;nan;99790.97;5037561;27;96630;-74